Latest Weather Observations for Laverton

IDV60801

Issued at 3:32 am EDT Friday 20 January 2017 (issued every 30 minutes, with the page automatically refreshed every 10 minutes)

About weather observations | Map of weather stations | Latest weather observations for VIC | Other Formats
Station Details ID: 087031 Name: LAVERTON RAAF Lat: -37.86 Lon: 144.76 Height: 20.1 m
Data from the previous 72 hours. | See also: Recent months at Laverton
Date/Time
EDT
Temp
°C
App
Temp
°C
Dew
Point
°C
Rel
Hum
%
Delta-T
°C
Wind Press
QNH
hPa
Press
MSL
hPa
Rain since
9am
mm
Dir  Spd
km/h
Gust
km/h
Spd
kts
Gust
kts
20/03:30am 16.8 17.7 16.6 99 0.1 NW 7 11 4 6 1000.3 1000.3 8.6
20/03:17am 16.9 17.2 16.9 100 0.0 WNW 11 13 6 7 1000.6 1000.6 7.8
20/03:00am 17.1 17.4 17.1 100 0.0 W 11 17 6 9 1001.1 1001.1 7.4
20/02:30am 17.1 14.5 16.9 99 0.1 SW 26 39 14 21 1002.1 1002.1 3.6
20/02:03am 17.4 12.6 15.6 89 1.1 WSW 35 59 19 32 1001.6 1001.6 1.0
20/02:00am 17.5 12.8 14.8 84 1.6 WSW 33 54 18 29 1001.7 1001.7 0.4
20/01:59am 17.5 12.9 14.6 83 1.7 WSW 32 54 17 29 1001.6 1001.6 0.4
20/01:51am 17.7 14.9 14.4 81 1.9 WSW 22 33 12 18 1000.4 1000.4 0.2
20/01:30am 17.8 17.4 12.9 73 2.7 WNW 7 11 4 6 998.2 998.2 0.0
20/01:00am 17.5 17.0 12.8 74 2.6 NNW 7 9 4 5 997.4 997.4 0.0
20/12:30am 17.9 17.8 13.2 74 2.6 WNW 6 9 3 5 997.9 997.9 0.0
20/12:00am 18.0 17.3 13.3 74 2.7 W 9 11 5 6 999.0 999.0 0.0
 
Date/Time
EDT
Temp
°C
App
Temp
°C
Dew
Point
°C
Rel
Hum
%
Delta-T
°C
Wind Press
QNH
hPa
Press
MSL
hPa
Rain since
9am
mm
Dir  Spd
km/h
Gust
km/h
Spd
kts
Gust
kts
19/11:30pm 18.6 18.0 13.5 72 2.9 W 9 13 5 7 999.6 999.6 0.0
19/11:00pm 18.4 17.8 13.5 73 2.8 WNW 9 13 5 7 1000.1 1000.1 0.0
19/10:30pm 19.1 19.0 13.9 72 3.0 WSW 7 11 4 6 1000.8 1000.8 0.0
19/10:00pm 19.6 19.6 14.2 71 3.1 W 7 9 4 5 1001.9 1001.9 0.0
19/09:30pm 19.8 20.0 14.2 70 3.2 SW 6 7 3 4 1002.6 1002.6 0.0
19/09:00pm 20.0 20.2 14.1 69 3.4 S 6 11 3 6 1003.7 1003.7 0.0
19/08:30pm 20.1 19.7 14.2 69 3.4 S 9 11 5 6 1003.8 1003.8 0.0
19/08:00pm 20.1 18.4 13.6 66 3.7 S 15 20 8 11 1004.5 1004.5 0.0
19/07:30pm 20.1 17.6 13.6 66 3.7 S 19 26 10 14 1004.9 1004.9 0.0
19/07:00pm 21.0 18.1 12.9 60 4.6 S 20 26 11 14 1005.4 1005.4 0.0
19/06:30pm 21.1 18.1 12.0 56 5.1 S 19 28 10 15 1005.6 1005.6 0.0
19/06:00pm 21.6 18.9 11.6 53 5.6 SSE 17 24 9 13 1006.0 1006.0 0.0
19/05:30pm 22.5 19.2 10.9 48 6.4 S 19 24 10 13 1006.4 1006.4 0.0
19/05:00pm 22.3 19.1 9.8 45 6.8 SSE 17 20 9 11 1006.9 1006.9 0.0
19/04:30pm 23.3 20.6 10.4 44 7.1 S 15 22 8 12 1007.6 1007.6 0.0
19/04:00pm 23.5 20.0 8.8 39 7.9 SSE 17 24 9 13 1008.1 1008.1 0.0
19/03:30pm 23.1 20.4 9.1 41 7.5 SE 13 19 7 10 1008.6 1008.6 0.0
19/03:00pm 22.7 19.8 9.8 44 7.0 S 15 20 8 11 1009.4 1009.4 0.0
19/02:30pm 22.7 20.6 9.8 44 7.0 SSE 11 20 6 11 1010.0 1010.0 0.0
19/02:00pm 21.4 18.8 9.3 46 6.5 ESE 13 22 7 12 1010.4 1010.4 0.0
19/01:30pm 20.8 17.8 9.1 47 6.2 SSE 15 24 8 13 1011.1 1011.1 0.0
19/01:00pm 20.8 18.2 9.4 48 6.1 S 13 20 7 11 1011.7 1011.6 0.0
19/12:30pm 19.9 16.8 8.9 49 5.8 SSE 15 26 8 14 1012.1 1012.0 0.0
19/12:00pm 19.3 16.1 8.6 50 5.6 SE 15 26 8 14 1012.7 1012.6 0.0
19/11:30am 18.3 14.8 8.8 54 4.9 SSE 17 28 9 15 1013.0 1012.9 0.0
19/11:00am 18.5 15.4 8.7 53 5.1 SE 15 22 8 12 1013.4 1013.3 0.0
19/10:30am 18.0 14.7 8.0 52 5.1 SE 15 26 8 14 1013.7 1013.6 0.0
19/10:00am 17.3 13.9 9.2 59 4.2 SE 17 30 9 16 1013.9 1013.8 0.0
19/09:30am 17.1 13.7 9.3 60 4.1 ESE 17 28 9 15 1014.2 1014.1 0.0
19/09:00am 17.1 13.5 8.5 57 4.4 SE 17 24 9 13 1014.4 1014.3 0.0
19/08:30am 17.0 14.4 9.2 60 4.1 SE 13 20 7 11 1014.5 1014.4 0.0
19/08:00am 16.6 14.2 8.8 60 4.0 SE 11 19 6 10 1014.9 1014.8 0.0
19/07:30am 15.9 13.8 8.4 61 3.8 SSE 9 15 5 8 1014.8 1014.7 0.0
19/07:00am 14.5 12.8 8.2 66 3.2 SSE 7 9 4 5 1014.9 1014.8 0.0
19/06:30am 14.4 11.8 7.7 64 3.3 SE 11 15 6 8 1014.7 1014.6 0.0
19/06:00am 14.7 12.5 8.0 64 3.3 SE 9 17 5 9 1014.4 1014.3 0.0
19/05:30am 14.5 12.8 8.2 66 3.2 SSE 7 11 4 6 1014.7 1014.6 0.0
19/05:00am 14.1 11.5 7.9 66 3.1 SSE 11 15 6 8 1014.4 1014.3 0.0
19/04:30am 14.1 11.5 7.9 66 3.1 SSE 11 17 6 9 1014.7 1014.6 0.0
19/04:00am 14.1 11.5 7.6 65 3.2 SE 11 19 6 10 1014.9 1014.8 0.0
19/03:30am 14.2 11.2 7.9 66 3.1 SE 13 17 7 9 1015.1 1015.0 0.0
19/03:00am 14.5 11.6 8.0 65 3.2 SE 13 20 7 11 1015.6 1015.5 0.0
19/02:30am 14.5 11.2 8.0 65 3.2 SSE 15 22 8 12 1015.8 1015.7 0.0
19/02:00am 14.4 11.0 7.7 64 3.3 SE 15 24 8 13 1016.2 1016.1 0.0
19/01:30am 14.3 10.8 7.1 62 3.5 SSE 15 20 8 11 1016.5 1016.4 0.0
19/01:00am 14.7 11.0 8.0 64 3.3 SSE 17 26 9 14 1016.6 1016.5 0.0
19/12:30am 14.7 11.1 8.2 65 3.3 SSE 17 24 9 13 1016.7 1016.6 0.0
19/12:00am 14.7 11.1 8.2 65 3.3 SSE 17 22 9 12 1017.0 1016.9 0.0
 
Date/Time
EDT
Temp
°C
App
Temp
°C
Dew
Point
°C
Rel
Hum
%
Delta-T
°C
Wind Press
QNH
hPa
Press
MSL
hPa
Rain since
9am
mm
Dir  Spd
km/h
Gust
km/h
Spd
kts
Gust
kts
18/11:30pm 14.9 10.9 8.4 65 3.3 SSE 19 28 10 15 1017.3 1017.2 0.0
18/11:00pm 15.0 11.0 8.3 64 3.4 SSE 19 28 10 15 1017.4 1017.3 0.0
18/10:30pm 15.4 11.6 8.9 65 3.3 SSE 19 26 10 14 1017.3 1017.2 0.0
18/10:00pm 15.6 11.4 8.1 61 3.8 SSE 20 32 11 17 1017.3 1017.2 0.0
18/09:30pm 15.8 11.7 8.5 62 3.7 SSE 20 30 11 16 1017.1 1017.0 0.0
18/09:00pm 15.9 11.7 8.4 61 3.8 SSE 20 30 11 16 1017.0 1016.9 0.0
18/08:30pm 16.3 11.5 7.5 56 4.4 SSE 22 28 12 15 1017.0 1016.9 0.0
18/08:00pm 16.9 11.7 7.3 53 4.8 SSE 24 32 13 17 1016.8 1016.7 0.0
18/07:30pm 17.4 12.4 8.0 54 4.8 S 24 32 13 17 1016.6 1016.5 0.0
18/07:00pm 17.9 12.2 8.5 54 4.8 SSE 28 39 15 21 1016.3 1016.2 0.0
18/06:30pm 18.3 12.7 8.6 53 5.0 SSE 28 37 15 20 1016.2 1016.1 0.0
18/06:00pm 18.8 13.0 7.9 49 5.6 S 28 43 15 23 1016.0 1015.9 0.0
18/05:30pm 19.0 12.8 7.8 48 5.7 S 30 39 16 21 1016.0 1015.9 0.0
18/05:00pm 19.2 12.9 7.3 46 6.0 SSE 30 44 16 24 1016.1 1016.0 0.0
18/04:30pm 19.1 12.3 7.8 48 5.8 S 33 46 18 25 1016.1 1016.0 0.0
18/04:00pm 19.7 13.3 8.4 48 5.9 S 32 46 17 25 1015.9 1015.8 0.0
18/03:30pm 19.7 13.1 7.8 46 6.1 SSE 32 46 17 25 1015.9 1015.8 0.0
18/03:00pm 20.0 13.3 7.4 44 6.4 SSE 32 50 17 27 1015.9 1015.8 0.0
18/02:58pm 19.3 12.5 7.1 45 6.2 SSE 32 50 17 27 1015.8 1015.7 0.0
18/02:30pm 19.7 13.3 8.7 49 5.8 SSE 32 44 17 24 1016.0 1015.9 0.0
18/02:09pm 19.7 13.8 9.0 50 5.6 SSE 30 48 16 26 1016.0 1015.9 0.0
18/02:00pm 20.3 14.9 9.5 50 5.7 SSE 28 43 15 23 1016.0 1015.9 0.0
18/01:30pm 20.1 13.8 9.1 49 5.8 S 32 43 17 23 1016.2 1016.1 0.0
18/01:00pm 19.3 13.4 9.2 52 5.3 S 30 48 16 26 1015.9 1015.8 0.0
18/12:55pm 19.6 13.6 8.6 49 5.7 SSW 30 48 16 26 1015.8 1015.7 0.0
18/12:30pm 19.4 13.6 8.1 48 5.8 SSW 28 43 15 23 1015.6 1015.5 0.0
18/12:00pm 18.9 12.5 9.4 54 5.0 SSE 33 46 18 25 1015.4 1015.3 0.0
18/11:30am 18.9 13.3 8.6 51 5.3 SSW 28 37 15 20 1015.3 1015.2 0.0
18/11:00am 20.0 14.6 8.0 46 6.2 S 26 35 14 19 1014.9 1014.8 0.0
18/10:30am 18.3 12.7 8.8 54 4.9 SSW 28 39 15 21 1014.6 1014.5 0.0
18/10:00am 20.0 15.0 8.0 46 6.2 S 24 35 13 19 1014.2 1014.1 0.0
18/09:30am 18.0 11.8 8.0 52 5.1 SSW 30 39 16 21 1014.1 1014.0 0.0
18/09:00am 18.2 12.7 9.0 55 4.8 SSW 28 39 15 21 1013.9 1013.8 0.0
18/08:30am 17.3 11.4 9.0 58 4.3 SSW 30 39 16 21 1013.5 1013.4 0.0
18/08:00am 17.3 12.0 9.7 61 4.0 SSW 28 39 15 21 1013.3 1013.2 0.0
18/07:30am 17.1 12.6 10.2 64 3.7 SSW 24 41 13 22 1012.7 1012.6 0.0
18/07:00am 16.4 10.9 10.7 69 3.0 SSW 30 44 16 24 1012.4 1012.3 0.0
18/06:30am 15.7 10.9 12.8 83 1.6 SSW 30 41 16 22 1011.5 1011.5 0.0
18/06:16am 16.4 11.5 12.6 78 2.1 SSW 30 41 16 22 1010.9 1010.9 0.0
18/06:00am 16.5 11.6 12.7 78 2.1 SSW 30 44 16 24 1010.8 1010.8 0.0
18/05:39am 16.6 13.0 14.2 86 1.4 SSW 26 39 14 21 1009.9 1009.9 0.0
18/05:30am 17.0 12.7 14.3 84 1.5 SSW 30 43 16 23 1010.2 1010.2 0.0
18/05:00am 17.5 14.7 14.4 82 1.8 S 22 30 12 16 1009.0 1009.0 0.0
18/04:30am 18.1 16.1 15.0 82 1.8 S 19 28 10 15 1008.6 1008.6 0.0
18/04:00am 18.6 17.0 14.9 79 2.2 S 17 22 9 12 1008.5 1008.5 0.0
18/03:48am 18.8 18.1 15.3 80 2.1 SSE 13 19 7 10 1008.7 1008.7 0.0
18/03:30am 19.2 19.4 15.7 80 2.1 SSW 9 13 5 7 1008.7 1008.7 0.0
18/03:00am 19.1 19.2 15.6 80 2.1 SSW 9 15 5 8 1009.4 1009.4 0.0
18/02:30am 19.0 18.6 15.1 78 2.3 SW 11 15 6 8 1010.0 1010.0 0.0
18/02:00am 19.1 19.3 14.8 76 2.5 SW 7 9 4 5 1009.8 1009.8 0.0
18/01:30am 19.2 20.3 14.5 74 2.7 E 2 7 1 4 1010.0 1010.0 0.0
18/01:00am 19.0 20.6 14.9 77 2.4 CALM 0 0 0 0 1009.9 1009.9 0.0
18/12:30am 19.4 19.9 14.9 75 2.6 ESE 6 7 3 4 1010.4 1010.4 0.0
18/12:00am 19.6 20.0 14.8 74 2.8 ESE 6 7 3 4 1010.5 1010.5 0.0
 
Date/Time
EDT
Temp
°C
App
Temp
°C
Dew
Point
°C
Rel
Hum
%
Delta-T
°C
Wind Press
QNH
hPa
Press
MSL
hPa
Rain since
9am
mm
Dir  Spd
km/h
Gust
km/h
Spd
kts
Gust
kts
17/11:30pm 20.0 18.4 15.0 73 2.9 SSW 17 20 9 11 1010.6 1010.6 0.0
17/11:00pm 20.5 18.1 14.4 68 3.6 SSW 20 26 11 14 1010.4 1010.4 0.0
17/10:30pm 20.8 17.8 14.9 69 3.5 SSW 24 35 13 19 1009.5 1009.5 0.0
17/10:00pm 21.6 17.1 13.8 61 4.5 S 30 41 16 22 1009.2 1009.2 0.0
17/09:30pm 22.9 19.9 12.5 52 5.9 S 20 35 11 19 1008.6 1008.6 0.0
17/09:00pm 23.1 20.1 12.7 52 6.0 SSW 20 28 11 15 1007.3 1007.3 0.0
17/08:30pm 23.4 19.1 12.1 49 6.4 SSW 26 35 14 19 1006.8 1006.8 0.0
17/08:00pm 23.7 19.9 12.4 49 6.5 SSW 24 32 13 17 1006.0 1006.0 0.0
17/07:30pm 24.1 19.8 12.1 47 6.8 SSW 26 33 14 18 1005.5 1005.5 0.0
17/07:00pm 24.7 20.7 13.0 48 6.8 S 26 33 14 18 1004.9 1004.9 0.0
17/06:30pm 28.9 25.6 11.5 34 10.0 SSE 20 30 11 16 1004.6 1004.6 0.0
17/06:00pm 30.1 25.5 9.6 28 11.6 SSE 24 32 13 17 1004.3 1004.3 0.0
17/05:30pm 31.3 25.4 8.9 25 12.5 SSE 30 43 16 23 1004.6 1004.6 0.0
17/05:00pm 33.1 27.8 8.5 22 13.8 SE 26 35 14 19 1004.8 1004.8 0.0
17/04:30pm 35.6 31.6 8.4 19 15.4 ESE 19 26 10 14 1004.4 1004.4 0.0
17/04:00pm 34.6 31.2 9.1 21 14.6 ESE 17 24 9 13 1004.9 1004.9 0.0
17/03:30pm 33.1 30.2 9.8 24 13.3 ESE 15 20 8 11 1005.5 1005.5 0.0
17/03:00pm 33.8 30.4 9.1 22 14.1 SE 17 20 9 11 1006.0 1006.0 0.0
17/02:30pm 32.4 29.5 11.0 27 12.4 SE 17 22 9 12 1006.4 1006.4 0.0
17/02:00pm 32.5 29.3 9.9 25 12.9 SE 17 20 9 11 1006.7 1006.7 0.0
17/01:30pm 34.0 29.9 7.9 20 14.6 SE 19 26 10 14 1007.1 1007.1 0.0
17/01:00pm 33.8 29.8 9.1 22 14.0 SSE 20 28 11 15 1007.4 1007.4 0.0
17/12:30pm 30.9 26.7 9.7 27 12.0 S 22 28 12 15 1007.5 1007.5 0.0
17/12:00pm 30.3 26.8 12.2 33 10.6 SSE 22 32 12 17 1007.1 1007.1 0.0
17/11:30am 30.0 27.9 12.4 34 10.3 SSE 15 20 8 11 1007.4 1007.4 0.0
17/11:00am 33.0 30.1 4.7 17 14.9 NNE 9 17 5 9 1007.7 1007.7 0.0
17/10:30am 29.2 28.2 13.4 38 9.4 E 11 17 6 9 1008.0 1008.0 0.0
17/10:00am 30.8 29.1 11.2 30 11.4 ENE 11 20 6 11 1008.4 1008.4 0.0
17/09:30am 28.3 27.2 10.5 33 10.1 E 7 11 4 6 1009.0 1009.0 0.0
17/09:00am 26.2 25.3 11.5 40 8.4 ESE 7 11 4 6 1008.9 1008.9 0.0
17/08:30am 23.8 24.2 11.2 45 7.1 CALM 0 0 0 0 1009.3 1009.3 0.0
17/08:00am 22.6 22.2 12.3 52 5.9 E 6 7 3 4 1009.1 1009.1 0.0
17/07:30am 21.0 21.4 11.3 54 5.4 CALM 0 0 0 0 1009.1 1009.1 0.0
17/07:00am 19.8 20.1 10.8 56 4.9 CALM 0 6 0 3 1008.7 1008.7 0.0
17/06:30am 19.6 19.8 10.6 56 4.9 CALM 0 0 0 0 1008.3 1008.3 0.0
17/06:00am 20.2 17.8 10.0 52 5.5 SSW 13 24 7 13 1008.2 1008.2 0.0
17/05:30am 20.8 19.6 9.7 49 6.0 SW 6 11 3 6 1007.6 1007.6 0.0
17/05:00am 23.2 20.6 7.7 37 8.1 W 11 13 6 7 1007.2 1007.2 0.0
17/04:30am 24.8 21.3 7.4 33 9.2 NNW 15 20 8 11 1006.8 1006.8 0.0
17/04:00am 23.1 20.3 8.4 39 7.8 NNW 13 19 7 10 1007.0 1007.0 0.0
17/03:59am 23.0 20.1 8.3 39 7.8 NNW 13 19 7 10 1007.0 1007.0 0.0

Other Formats:

Comma delimited format used in spreadsheet applications
http://www.bom.gov.au/fwo/IDV60801/IDV60801.94865.axf

JavaScript Object Notation format (JSON) in row-major order
http://www.bom.gov.au/fwo/IDV60801/IDV60801.94865.json